Crescent, Oklahoma
Current Conditions -  °F | °C
As of 9:53 AM on Saturday 25 Oct 2014 (Local Time) from KGOK Reporting Station
NA  
Wind Chill: 69°   Ceiling: NA
Heat Index: 69°   Visibility: 10mi
Dew Point: 61°   Wind: 9mph
Humidity: 75%   Direction: 220°SW
Pressure: 30.09"   Gusts: NA
Location:  35.95°N, 97.59°W
Report Text: KGOK 251453Z AUTO 22008KT 10SM 21/16 A3009 RMK AO2 SLP183 T02060161 53017 $
Loading
Personal Weather Stations






























Interactive Weather Map
Tropical Storm Tracking
New forecast layout! Learn more

10-Day Weather Forecast

Advertisements
Track Severe Weather on mobile